CYYR

Goose Bay Airport

Goose Bay, Canada
TAF CYYR 212339Z 2200/2224 VRB03KT P6SM SCT040 OVC140 TEMPO 2200/2203 P6SM -RA BKN040 OVC120 BECMG 2200/2202 16010KT FM220400 16010KT 6SM -RA BR SCT010 OVC030 TEMPO 2204/2207 2SM SHRA SCT006 OVC010 FM220700 15012KT 3SM -SHRA BR BKN015 OVC030 BECMG 2207/2209 18020G35KT FM221300 25030G45KT P6SM BKN030 BECMG 2215/2217 27032G50KT BECMG 2217/2219 27035G55KT RMK NXT FCST BY 220600Z
Issued Valid From Valid To
Sep-21 @ 23:39 UTC
(4 hours ago)
Sep-22 @ 00:00 UTC
(3 hours ago)
Sep-23 @ 00:00 UTC
(in 21 hours)
to
to
to
to
to
to
to
to
to
to
TAF CYYR 212339Z 2200/2224 VRB03KT P6SM SCT040 OVC140 TEMPO 2200/2203 P6SM -RA BKN040 OVC120 BECMG 2200/2202 16010KT FM220400 16010KT 6SM -RA BR SCT010 OVC030 TEMPO 2204/2207 2SM SHRA SCT006 OVC010 FM220700 15012KT 3SM -SHRA BR BKN015 OVC030 BECMG 2207/2209 18020G35KT FM221300 25030G45KT P6SM BKN030 BECMG 2215/2217 27032G50KT BECMG 2217/2219 27035G55KT RMK NXT FCST BY 220600Z
Issued Sep-21 @ 23:39 UTC
(4 hours ago)
Valid From Sep-22 @ 00:00 UTC
(3 hours ago)
Valid To Sep-23 @ 00:00 UTC
(in 21 hours)
-
-
-
-
-
-
-
-
-
-